createdAt,value
2023-07-25T00:01:58.012Z,48.47
2023-07-25T00:04:26.001Z,48.60
2023-07-25T00:06:53.856Z,48.50
2023-07-25T00:09:21.626Z,48.43
2023-07-25T00:11:49.493Z,48.35
2023-07-25T00:14:17.382Z,48.25
2023-07-25T00:16:45.386Z,48.22
2023-07-25T00:19:13.526Z,48.10
2023-07-25T00:21:41.314Z,48.00
2023-07-25T00:24:09.048Z,48.00
2023-07-25T00:26:37.117Z,47.90
2023-07-25T00:29:05.555Z,47.83
2023-07-25T00:31:34.665Z,47.95
2023-07-25T00:34:05.241Z,47.87
2023-07-25T00:36:33.515Z,47.77
2023-07-25T00:39:01.428Z,47.73
2023-07-25T00:41:29.713Z,47.79
2023-07-25T00:43:57.848Z,47.81
2023-07-25T00:46:26.341Z,47.70
2023-07-25T00:48:54.927Z,47.60
2023-07-25T00:51:22.798Z,48.29
2023-07-25T00:53:51.480Z,49.14
2023-07-25T00:56:19.827Z,49.83
2023-07-25T00:58:48.207Z,50.35
2023-07-25T01:01:16.022Z,50.65
2023-07-25T01:03:44.198Z,50.81
2023-07-25T01:06:16.158Z,50.77
2023-07-25T01:08:48.877Z,50.63
2023-07-25T01:11:17.376Z,50.70
2023-07-25T01:13:45.528Z,50.73
2023-07-25T01:16:16.348Z,50.78
2023-07-25T01:18:45.384Z,50.89
2023-07-25T01:21:13.676Z,51.03
2023-07-25T01:23:42.501Z,51.02
2023-07-25T01:26:10.520Z,50.85
2023-07-25T01:28:38.787Z,50.93
2023-07-25T01:31:06.644Z,50.80
2023-07-25T01:33:34.374Z,51.19
2023-07-25T01:36:02.778Z,51.72
2023-07-25T01:38:30.738Z,51.84
2023-07-25T01:40:58.632Z,51.98
2023-07-25T01:43:26.618Z,52.23
2023-07-25T01:45:54.437Z,52.26
2023-07-25T01:48:22.736Z,52.34
2023-07-25T01:50:50.699Z,52.13
2023-07-25T01:53:18.709Z,52.05
2023-07-25T01:55:47.157Z,52.07
2023-07-25T01:58:15.103Z,52.15
2023-07-25T02:00:42.774Z,52.30
2023-07-25T02:03:12.147Z,52.16
2023-07-25T02:05:40.249Z,52.01
2023-07-25T02:08:08.044Z,52.08
2023-07-25T02:10:35.851Z,51.96
2023-07-25T02:13:03.865Z,52.11
2023-07-25T02:15:31.690Z,52.08
2023-07-25T02:18:00.408Z,52.21
2023-07-25T02:20:30.937Z,52.25
2023-07-25T02:22:59.358Z,52.12
2023-07-25T02:25:27.586Z,51.78
2023-07-25T02:27:55.639Z,51.80
2023-07-25T02:30:23.365Z,51.90
2023-07-25T02:32:51.241Z,53.17
2023-07-25T02:35:19.041Z,56.45
2023-07-25T02:37:46.905Z,58.66
2023-07-25T02:40:14.631Z,60.31
2023-07-25T02:42:42.868Z,61.48
2023-07-25T02:45:11.485Z,62.84
2023-07-25T02:47:39.927Z,64.08
2023-07-25T02:50:08.233Z,64.86
2023-07-25T02:52:36.385Z,65.44
2023-07-25T02:55:04.692Z,65.56
2023-07-25T02:57:32.399Z,66.44
2023-07-25T03:00:00.781Z,67.18
2023-07-25T03:02:28.826Z,68.09
2023-07-25T03:04:57.443Z,68.78
2023-07-25T03:07:25.161Z,68.96
2023-07-25T03:09:53.070Z,68.92
2023-07-25T03:12:21.303Z,68.73
2023-07-25T03:14:49.278Z,68.79
2023-07-25T03:17:17.518Z,68.52
2023-07-25T03:19:45.654Z,67.98
2023-07-25T03:22:13.509Z,67.39
2023-07-25T03:24:41.936Z,67.43
2023-07-25T03:27:09.786Z,68.63
2023-07-25T03:29:37.822Z,69.29
2023-07-25T03:32:06.233Z,69.84
2023-07-25T03:34:34.208Z,69.71
2023-07-25T03:37:02.084Z,70.48
2023-07-25T03:39:30.138Z,70.46
2023-07-25T03:41:57.911Z,71.14
2023-07-25T03:44:25.853Z,71.27
2023-07-25T03:46:53.602Z,71.35
2023-07-25T03:49:21.680Z,71.27
2023-07-25T03:51:49.440Z,71.45
2023-07-25T03:54:19.220Z,71.23
2023-07-25T03:56:46.895Z,70.97
2023-07-25T03:59:14.678Z,71.18
2023-07-25T04:01:42.535Z,70.95
2023-07-25T04:04:10.538Z,71.10
2023-07-25T04:06:39.235Z,71.17
2023-07-25T04:09:07.447Z,71.42
2023-07-25T04:11:35.582Z,71.29
2023-07-25T04:14:03.838Z,71.19
2023-07-25T04:16:31.833Z,71.20
2023-07-25T04:18:59.954Z,71.46
2023-07-25T04:21:28.115Z,71.44
2023-07-25T04:23:56.177Z,71.51
2023-07-25T04:26:24.181Z,71.42
2023-07-25T04:28:52.271Z,70.91
2023-07-25T04:31:21.529Z,70.75
2023-07-25T04:33:49.781Z,70.78
2023-07-25T04:36:17.958Z,70.96
2023-07-25T04:38:45.778Z,71.08
2023-07-25T04:41:13.793Z,71.09
2023-07-25T04:43:41.839Z,70.92
2023-07-25T04:46:09.644Z,70.94
2023-07-25T04:48:37.607Z,70.90
2023-07-25T04:51:05.704Z,70.62
2023-07-25T04:53:34.926Z,70.44
2023-07-25T04:56:02.773Z,70.71
2023-07-25T04:58:30.811Z,70.68
2023-07-25T05:00:58.932Z,70.33
2023-07-25T05:03:27.431Z,69.81
2023-07-25T05:05:56.260Z,69.17
2023-07-25T05:08:24.073Z,68.79
2023-07-25T05:10:52.586Z,68.26
2023-07-25T05:13:20.704Z,67.43
2023-07-25T05:15:48.568Z,66.57
2023-07-25T05:18:16.304Z,65.80
2023-07-25T05:20:44.467Z,65.11
2023-07-25T05:23:12.981Z,64.13
2023-07-25T05:25:41.361Z,63.13
2023-07-25T05:28:09.114Z,62.62
2023-07-25T05:30:37.465Z,62.47
2023-07-25T05:33:05.190Z,61.77
2023-07-25T05:35:33.101Z,61.56
2023-07-25T05:38:02.058Z,61.26
2023-07-25T05:40:29.907Z,59.79
2023-07-25T05:42:57.843Z,58.91
2023-07-25T05:45:25.696Z,58.94
2023-07-25T05:47:53.708Z,58.97
2023-07-25T05:50:21.442Z,58.95
2023-07-25T05:52:49.518Z,58.48
2023-07-25T05:55:17.521Z,57.91
2023-07-25T05:57:45.464Z,57.30
2023-07-25T06:00:14.312Z,56.83
2023-07-25T06:02:42.328Z,56.62
2023-07-25T06:05:10.411Z,56.11
2023-07-25T06:07:38.595Z,55.45
2023-07-25T06:10:07.642Z,54.94
2023-07-25T06:12:35.451Z,53.94
2023-07-25T06:15:03.786Z,53.68
2023-07-25T06:17:31.825Z,53.64
2023-07-25T06:20:00.229Z,53.28
2023-07-25T06:22:28.025Z,52.64
2023-07-25T06:24:55.930Z,52.11
2023-07-25T06:27:25.670Z,51.29
2023-07-25T06:29:55.484Z,51.19
2023-07-25T06:32:23.959Z,50.77
2023-07-25T06:34:52.019Z,50.64
2023-07-25T06:37:20.220Z,50.95
2023-07-25T06:39:47.914Z,51.27
2023-07-25T06:42:16.315Z,51.24
2023-07-25T06:44:47.496Z,50.84
2023-07-25T06:47:15.295Z,50.54
2023-07-25T06:49:42.964Z,50.21
2023-07-25T06:52:10.998Z,49.94
2023-07-25T06:54:39.434Z,49.05
2023-07-25T06:57:07.465Z,49.37
2023-07-25T06:59:35.122Z,48.92
2023-07-25T07:02:03.228Z,48.16
2023-07-25T07:04:31.144Z,47.86
2023-07-25T07:06:59.222Z,46.72
2023-07-25T07:09:27.306Z,46.45
2023-07-25T07:11:55.741Z,45.77
2023-07-25T07:14:23.453Z,45.55
2023-07-25T07:16:51.364Z,45.66
2023-07-25T07:19:19.554Z,46.01
2023-07-25T07:21:47.251Z,45.06
2023-07-25T07:24:15.320Z,44.04
2023-07-25T07:26:43.276Z,44.10
2023-07-25T07:29:11.478Z,44.00
2023-07-25T07:31:39.408Z,43.16
2023-07-25T07:34:18.359Z,43.40
2023-07-25T07:36:46.199Z,43.24
2023-07-25T07:39:14.189Z,43.67
2023-07-25T07:41:42.323Z,42.69
2023-07-25T07:44:10.256Z,41.26
2023-07-25T07:46:38.065Z,41.26
2023-07-25T07:49:05.941Z,41.29
2023-07-25T07:51:33.976Z,40.37
2023-07-25T07:54:01.804Z,40.21
2023-07-25T07:56:29.879Z,40.48
2023-07-25T07:58:57.592Z,40.46
2023-07-25T08:01:26.077Z,38.93
2023-07-25T08:03:53.964Z,38.20
2023-07-25T08:06:22.063Z,38.22
2023-07-25T08:08:49.942Z,37.84
2023-07-25T08:11:17.888Z,37.00
2023-07-25T08:13:45.793Z,36.83
2023-07-25T08:16:13.712Z,36.81
2023-07-25T08:18:41.536Z,36.46
2023-07-25T08:21:09.295Z,36.14
2023-07-25T08:23:36.977Z,36.49
2023-07-25T08:26:05.018Z,36.40
2023-07-25T08:28:32.876Z,36.14
2023-07-25T08:31:01.715Z,35.30
2023-07-25T08:33:30.262Z,33.04
2023-07-25T08:35:58.094Z,32.26
2023-07-25T08:38:26.006Z,32.18
2023-07-25T08:41:14.343Z,32.33
2023-07-25T08:43:43.854Z,31.66
2023-07-25T08:46:12.787Z,31.88
2023-07-25T08:48:41.704Z,32.68
2023-07-25T08:51:20.906Z,32.46
2023-07-25T08:53:57.103Z,32.23
2023-07-25T08:56:26.245Z,31.81
2023-07-25T08:58:55.241Z,30.93
2023-07-25T09:01:23.167Z,31.55
2023-07-25T09:03:52.730Z,32.21
2023-07-25T09:06:21.229Z,31.89
2023-07-25T09:08:49.173Z,32.23
2023-07-25T09:11:20.618Z,32.16
2023-07-25T09:13:51.724Z,31.93
2023-07-25T09:16:19.622Z,31.83
2023-07-25T09:18:47.570Z,32.04
2023-07-25T09:21:16.202Z,31.80
2023-07-25T09:23:54.241Z,31.27
2023-07-25T09:26:22.706Z,31.37
2023-07-25T09:28:52.096Z,31.39
2023-07-25T09:31:21.403Z,30.97
2023-07-25T09:33:50.371Z,31.40
2023-07-25T09:36:19.748Z,30.05
2023-07-25T09:38:48.957Z,31.36
2023-07-25T09:41:17.867Z,31.28
2023-07-25T09:43:45.861Z,30.66
2023-07-25T09:46:13.871Z,30.92
2023-07-25T09:48:45.900Z,30.76
2023-07-25T09:51:14.370Z,30.71
2023-07-25T09:53:43.451Z,31.41
2023-07-25T09:56:11.586Z,31.24
2023-07-25T09:58:50.892Z,31.92
2023-07-25T10:01:28.233Z,32.51
2023-07-25T10:03:56.581Z,32.59
2023-07-25T10:06:25.285Z,33.66
2023-07-25T10:08:54.335Z,33.65
2023-07-25T10:11:23.747Z,33.92
2023-07-25T10:13:52.200Z,34.26
2023-07-25T10:16:21.023Z,34.29
2023-07-25T10:18:55.966Z,34.57
2023-07-25T10:21:30.732Z,34.72
2023-07-25T10:24:01.437Z,35.42
2023-07-25T10:26:29.623Z,35.12
2023-07-25T10:29:00.864Z,35.07
2023-07-25T10:31:34.921Z,35.30
2023-07-25T10:34:03.843Z,35.95
2023-07-25T10:36:31.601Z,35.21
2023-07-25T10:39:07.361Z,35.27
2023-07-25T10:41:35.403Z,34.47
2023-07-25T10:44:04.010Z,34.74
2023-07-25T10:46:33.304Z,33.83
2023-07-25T10:49:02.565Z,33.52
2023-07-25T10:51:52.581Z,33.44
2023-07-25T10:54:22.402Z,33.95
2023-07-25T10:57:11.569Z,33.93
2023-07-25T10:59:59.983Z,34.37
2023-07-25T11:02:35.398Z,35.13
2023-07-25T11:05:15.888Z,35.50
2023-07-25T11:07:47.122Z,36.27
2023-07-25T11:10:24.958Z,36.37
2023-07-25T11:12:55.288Z,36.31
2023-07-25T11:15:36.497Z,36.60
2023-07-25T11:18:11.682Z,37.14
2023-07-25T11:20:39.795Z,38.23
2023-07-25T11:23:08.225Z,38.87
2023-07-25T11:25:36.260Z,40.48
2023-07-25T11:28:04.394Z,41.47
2023-07-25T11:30:32.515Z,41.49
2023-07-25T11:33:00.561Z,41.28
2023-07-25T11:35:30.664Z,40.88
2023-07-25T11:38:03.901Z,40.75
2023-07-25T11:40:32.819Z,40.57
2023-07-25T11:43:01.142Z,40.63
2023-07-25T11:45:29.492Z,40.05
2023-07-25T11:47:58.986Z,39.42
2023-07-25T11:50:30.490Z,39.02
2023-07-25T11:53:02.281Z,39.16
2023-07-25T11:55:30.783Z,39.96
2023-07-25T11:58:02.786Z,39.20
2023-07-25T12:00:43.410Z,38.21
2023-07-25T12:03:18.862Z,38.20
2023-07-25T12:05:53.564Z,38.05
2023-07-25T12:08:35.797Z,38.48
2023-07-25T12:11:04.266Z,38.88
2023-07-25T12:13:32.290Z,38.95
2023-07-25T12:16:02.090Z,37.97
2023-07-25T12:18:31.307Z,38.27
2023-07-25T12:21:01.832Z,38.98
2023-07-25T12:23:30.470Z,39.52
2023-07-25T12:26:01.051Z,39.87
2023-07-25T12:28:42.237Z,40.30
2023-07-25T12:31:10.131Z,41.10
2023-07-25T12:33:39.111Z,41.46
2023-07-25T12:36:07.295Z,41.48
2023-07-25T12:38:35.379Z,41.84
2023-07-25T12:41:04.048Z,42.24
2023-07-25T12:43:31.899Z,42.49
2023-07-25T12:46:00.036Z,42.73
2023-07-25T12:48:27.860Z,43.03
2023-07-25T12:50:55.682Z,43.43
2023-07-25T12:53:24.093Z,43.10
2023-07-25T12:55:53.915Z,42.65
2023-07-25T12:58:21.935Z,42.61
2023-07-25T13:00:50.291Z,42.58
2023-07-25T13:03:22.348Z,42.73
2023-07-25T13:05:50.440Z,42.76
2023-07-25T13:08:18.885Z,43.02
2023-07-25T13:10:48.507Z,43.32
2023-07-25T13:13:16.237Z,43.37
2023-07-25T13:15:44.794Z,43.43
2023-07-25T13:18:13.300Z,43.40
2023-07-25T13:20:41.140Z,43.29
2023-07-25T13:23:14.094Z,43.70
2023-07-25T13:25:44.503Z,44.14
2023-07-25T13:28:13.077Z,44.03
2023-07-25T13:30:41.530Z,44.24
2023-07-25T13:33:09.519Z,44.90
2023-07-25T13:35:37.854Z,45.15
2023-07-25T13:38:07.708Z,45.11
2023-07-25T13:40:35.413Z,45.08
2023-07-25T13:43:03.839Z,45.01
2023-07-25T13:45:45.729Z,44.90
2023-07-25T13:48:19.644Z,45.29
2023-07-25T13:50:53.676Z,45.63
2023-07-25T13:53:23.333Z,46.08
2023-07-25T13:55:51.908Z,48.08
2023-07-25T14:00:50.371Z,60.61
2023-07-25T14:03:18.204Z,64.46
2023-07-25T14:05:45.998Z,67.07
2023-07-25T14:08:14.016Z,68.44
2023-07-25T14:10:42.292Z,69.33
2023-07-25T14:13:10.344Z,69.27
2023-07-25T14:15:38.337Z,68.79
2023-07-25T14:18:06.092Z,68.90
2023-07-25T14:20:34.326Z,68.25
2023-07-25T14:23:02.065Z,68.75
2023-07-25T14:25:30.114Z,69.26
2023-07-25T14:27:57.922Z,68.82
2023-07-25T14:30:26.287Z,69.09
2023-07-25T14:32:54.548Z,68.65
2023-07-25T14:35:22.723Z,68.43
2023-07-25T14:37:56.786Z,68.41
2023-07-25T14:40:26.120Z,68.48
2023-07-25T14:42:54.223Z,68.38
2023-07-25T14:45:27.336Z,67.56
2023-07-25T14:48:01.601Z,67.57
2023-07-25T14:50:29.893Z,67.80
2023-07-25T14:52:57.944Z,67.39
2023-07-25T14:55:26.097Z,66.89
2023-07-25T14:57:54.361Z,66.61
2023-07-25T15:00:22.276Z,66.91
2023-07-25T15:02:50.704Z,66.60
2023-07-25T15:05:18.817Z,66.68
2023-07-25T15:07:47.242Z,66.47
2023-07-25T15:10:15.423Z,66.07
2023-07-25T15:12:43.973Z,65.81
2023-07-25T15:15:12.277Z,65.43
2023-07-25T15:17:40.194Z,65.79
2023-07-25T15:20:11.519Z,66.24
2023-07-25T15:22:41.240Z,66.57
2023-07-25T15:25:09.404Z,66.61
2023-07-25T15:27:37.235Z,66.98
2023-07-25T15:30:05.561Z,66.80
2023-07-25T15:32:33.634Z,67.04
2023-07-25T15:35:01.433Z,66.96
2023-07-25T15:37:29.286Z,67.03
2023-07-25T15:39:57.778Z,67.21
2023-07-25T15:42:25.576Z,66.79
2023-07-25T15:44:53.622Z,66.74
2023-07-25T15:47:22.132Z,66.56
2023-07-25T15:49:49.823Z,66.21
2023-07-25T15:52:17.514Z,65.90
2023-07-25T15:54:45.275Z,65.41
2023-07-25T15:57:13.461Z,63.96
2023-07-25T15:59:41.783Z,63.16
2023-07-25T16:02:09.906Z,61.93
2023-07-25T16:04:37.731Z,62.39
2023-07-25T16:07:06.047Z,63.42
2023-07-25T16:09:34.065Z,62.97
2023-07-25T16:12:02.200Z,63.27
2023-07-25T16:14:30.023Z,63.87
2023-07-25T16:16:58.110Z,65.21
2023-07-25T16:19:27.179Z,66.43
2023-07-25T16:21:55.229Z,67.62
2023-07-25T16:24:22.888Z,68.27
2023-07-25T16:26:50.635Z,67.57
2023-07-25T16:29:18.925Z,66.40
2023-07-25T16:31:48.322Z,64.64
2023-07-25T16:34:19.188Z,64.68
2023-07-25T16:36:47.101Z,65.73
2023-07-25T16:39:15.020Z,66.87
2023-07-25T16:41:42.945Z,64.46
2023-07-25T16:44:10.930Z,63.89
2023-07-25T16:46:38.944Z,64.40
2023-07-25T16:49:07.064Z,64.44
2023-07-25T16:51:34.988Z,65.25
2023-07-25T16:54:03.328Z,65.62
2023-07-25T16:56:31.790Z,66.05
2023-07-25T16:59:00.406Z,65.24
2023-07-25T17:01:28.343Z,66.01
2023-07-25T17:03:56.435Z,66.50
2023-07-25T17:06:24.534Z,66.48
2023-07-25T17:08:52.565Z,66.78
2023-07-25T17:11:20.749Z,67.53
2023-07-25T17:13:48.547Z,67.65
2023-07-25T17:16:16.986Z,67.69
2023-07-25T17:18:44.947Z,68.34
2023-07-25T17:21:14.859Z,68.31
2023-07-25T17:23:46.391Z,68.14
2023-07-25T17:26:14.540Z,68.88
2023-07-25T17:28:42.380Z,68.86
2023-07-25T17:31:10.788Z,68.78
2023-07-25T17:33:41.807Z,68.71
2023-07-25T17:36:09.608Z,69.32
2023-07-25T17:38:37.420Z,69.43
2023-07-25T17:41:06.045Z,69.66
2023-07-25T17:43:34.141Z,69.37
2023-07-25T17:46:01.832Z,69.68
2023-07-25T17:48:29.501Z,69.58
2023-07-25T17:50:57.431Z,69.56
2023-07-25T17:53:25.467Z,69.15
2023-07-25T17:55:55.700Z,69.32
2023-07-25T17:58:23.594Z,69.27
2023-07-25T18:00:52.046Z,69.01
2023-07-25T18:03:20.074Z,69.06
2023-07-25T18:05:48.678Z,69.87
2023-07-25T18:08:19.962Z,69.63
2023-07-25T18:14:58.931Z,70.49
2023-07-25T18:17:35.648Z,69.74
2023-07-25T18:20:03.942Z,69.47
2023-07-25T18:22:32.790Z,69.29
2023-07-25T18:25:09.067Z,69.29
2023-07-25T18:27:51.334Z,69.47
2023-07-25T18:30:23.186Z,69.89
2023-07-25T18:32:51.298Z,68.54
2023-07-25T18:35:19.801Z,67.13
2023-07-25T18:38:08.635Z,67.11
2023-07-25T18:40:44.505Z,67.42
2023-07-25T18:43:20.746Z,67.86
2023-07-25T18:45:49.564Z,67.62
2023-07-25T18:48:17.274Z,67.45
2023-07-25T18:50:45.557Z,67.46
2023-07-25T18:53:13.408Z,67.64
2023-07-25T18:55:41.792Z,67.80
2023-07-25T18:58:10.020Z,67.91
2023-07-25T19:00:38.261Z,68.18
2023-07-25T19:03:06.413Z,68.63
2023-07-25T19:05:34.414Z,68.51
2023-07-25T19:08:02.466Z,68.70
2023-07-25T19:10:30.442Z,69.38
2023-07-25T19:12:58.628Z,68.94
2023-07-25T19:15:27.168Z,68.31
2023-07-25T19:17:54.978Z,67.98
2023-07-25T19:20:23.221Z,68.18
2023-07-25T19:22:51.375Z,68.42
2023-07-25T19:25:19.180Z,69.23
2023-07-25T19:27:49.513Z,69.55
2023-07-25T19:30:17.514Z,69.91
2023-07-25T19:32:45.380Z,69.56
2023-07-25T19:35:13.559Z,69.72
2023-07-25T19:37:41.476Z,69.58
2023-07-25T19:40:09.458Z,69.64
2023-07-25T19:42:38.566Z,69.82
2023-07-25T19:45:06.690Z,69.75
2023-07-25T19:47:34.908Z,69.79
2023-07-25T19:50:03.072Z,69.40
2023-07-25T19:52:30.842Z,69.27
2023-07-25T19:54:59.132Z,69.72
2023-07-25T19:57:27.263Z,69.84
2023-07-25T19:59:55.055Z,69.99
2023-07-25T20:02:23.386Z,70.15
2023-07-25T20:04:51.462Z,70.39
2023-07-25T20:07:19.239Z,70.55
2023-07-25T20:09:47.026Z,70.67
2023-07-25T20:12:15.173Z,70.31
2023-07-25T20:14:43.224Z,70.09
2023-07-25T20:17:11.213Z,70.16
2023-07-25T20:19:38.813Z,70.28
2023-07-25T20:22:06.641Z,70.58
2023-07-25T20:24:34.592Z,70.67
2023-07-25T20:27:02.380Z,70.73
2023-07-25T20:29:30.480Z,70.95
2023-07-25T20:31:59.813Z,71.28
2023-07-25T20:34:28.358Z,71.50
2023-07-25T20:36:57.224Z,71.31
2023-07-25T20:39:24.999Z,71.23
2023-07-25T20:41:52.941Z,71.65
2023-07-25T20:44:21.337Z,71.78
2023-07-25T20:46:49.125Z,72.06
2023-07-25T20:49:17.051Z,72.04
2023-07-25T20:51:45.124Z,72.34
2023-07-25T20:54:13.462Z,72.52
2023-07-25T20:56:41.212Z,72.53
2023-07-25T20:59:09.972Z,72.44
2023-07-25T21:01:38.153Z,72.08
2023-07-25T21:04:06.174Z,72.25
2023-07-25T21:06:34.406Z,72.71
2023-07-25T21:09:02.378Z,72.84
2023-07-25T21:11:30.358Z,73.11
2023-07-25T21:13:58.430Z,73.12
2023-07-25T21:16:26.311Z,73.24
2023-07-25T21:18:54.280Z,73.42
2023-07-25T21:21:22.187Z,73.60
2023-07-25T21:23:49.989Z,73.45
2023-07-25T21:26:18.040Z,73.59
2023-07-25T21:28:46.116Z,73.58
2023-07-25T21:31:13.975Z,73.34
2023-07-25T21:33:42.106Z,73.32
2023-07-25T21:36:11.409Z,73.35
2023-07-25T21:38:40.108Z,73.29
2023-07-25T21:41:09.001Z,73.30
2023-07-25T21:43:37.067Z,73.26
2023-07-25T21:46:05.121Z,73.18
2023-07-25T21:48:32.965Z,73.24
2023-07-25T21:51:01.173Z,73.14
2023-07-25T21:53:29.852Z,73.23
2023-07-25T21:55:58.223Z,73.10
2023-07-25T21:58:27.143Z,73.09
2023-07-25T22:00:59.036Z,73.10
2023-07-25T22:03:29.290Z,73.13
2023-07-25T22:05:58.231Z,73.16
2023-07-25T22:08:26.263Z,72.98
2023-07-25T22:10:54.547Z,73.28
2023-07-25T22:13:22.867Z,73.48
2023-07-25T22:15:51.479Z,73.67
2023-07-25T22:18:19.914Z,73.65
2023-07-25T22:20:52.503Z,73.82
2023-07-25T22:23:21.922Z,73.81
2023-07-25T22:25:50.015Z,73.77
2023-07-25T22:28:17.825Z,73.84
2023-07-25T22:30:45.821Z,74.07
2023-07-25T22:33:13.664Z,74.14
2023-07-25T22:35:41.758Z,74.23
2023-07-25T22:38:10.369Z,74.40
2023-07-25T22:40:38.934Z,74.40
2023-07-25T22:43:07.102Z,74.44
2023-07-25T22:45:35.321Z,74.35
2023-07-25T22:48:03.479Z,74.34
2023-07-25T22:50:31.670Z,74.21
2023-07-25T22:53:00.033Z,74.15
2023-07-25T22:55:28.239Z,74.08
2023-07-25T22:57:56.312Z,73.39
2023-07-25T23:00:24.542Z,72.99
2023-07-25T23:02:53.151Z,72.83
2023-07-25T23:05:21.096Z,72.99
2023-07-25T23:07:49.164Z,72.94
2023-07-25T23:10:17.549Z,72.84
2023-07-25T23:12:45.500Z,72.58
2023-07-25T23:15:14.719Z,72.42
2023-07-25T23:17:42.640Z,72.20
2023-07-25T23:20:10.678Z,72.07
2023-07-25T23:22:38.490Z,72.06
2023-07-25T23:25:06.512Z,71.77
2023-07-25T23:27:34.484Z,71.79
2023-07-25T23:30:02.628Z,71.90
2023-07-25T23:32:30.389Z,71.71
2023-07-25T23:34:58.243Z,71.52
2023-07-25T23:37:26.411Z,71.68
2023-07-25T23:39:54.659Z,71.62
2023-07-25T23:42:22.920Z,71.52
2023-07-25T23:44:50.738Z,71.14
2023-07-25T23:47:18.685Z,71.29
2023-07-25T23:49:46.401Z,71.30
2023-07-25T23:52:14.221Z,71.28
2023-07-25T23:54:42.332Z,70.73
2023-07-25T23:57:10.741Z,70.61
2023-07-25T23:59:38.934Z,70.65
